createdAt,value
2023-04-11T00:04:57.379Z,3.00
2023-04-11T00:10:02.420Z,1.80
2023-04-11T00:15:06.731Z,2.37
2023-04-11T00:20:11.653Z,3.23
2023-04-11T00:25:16.875Z,2.43
2023-04-11T00:30:20.771Z,2.97
2023-04-11T00:35:24.186Z,2.40
2023-04-11T00:40:28.878Z,2.40
2023-04-11T00:45:32.377Z,1.80
2023-04-11T00:50:36.952Z,1.83
2023-04-11T00:55:41.761Z,2.00
2023-04-11T01:00:45.241Z,3.07
2023-04-11T01:05:50.114Z,2.97
2023-04-11T01:10:55.071Z,4.27
2023-04-11T01:15:58.371Z,2.73
2023-04-11T01:21:01.708Z,2.30
2023-04-11T01:26:06.861Z,2.30
2023-04-11T01:31:10.183Z,2.10
2023-04-11T01:36:14.860Z,2.03
2023-04-11T01:41:21.743Z,2.37
2023-04-11T01:46:25.672Z,2.43
2023-04-11T01:51:29.145Z,3.37
2023-04-11T01:56:33.829Z,3.00
2023-04-11T02:01:37.389Z,3.87
2023-04-11T02:06:40.668Z,3.63
2023-04-11T02:11:45.254Z,2.33
2023-04-11T02:16:53.159Z,2.83
2023-04-11T02:21:56.386Z,2.77
2023-04-11T02:27:02.266Z,2.47
2023-04-11T02:32:05.925Z,3.00
2023-04-11T02:37:09.650Z,3.13
2023-04-11T02:42:15.163Z,3.77
2023-04-11T02:47:18.430Z,4.13
2023-04-11T02:52:21.857Z,3.33
2023-04-11T02:57:26.701Z,2.97
2023-04-11T03:02:30.521Z,3.03
2023-04-11T03:07:34.181Z,3.13
2023-04-11T03:12:38.850Z,3.37
2023-04-11T03:17:42.201Z,3.60
2023-04-11T03:22:45.552Z,2.70
2023-04-11T03:27:50.315Z,2.53
2023-04-11T03:32:53.754Z,3.23
2023-04-11T03:37:57.027Z,2.47
2023-04-11T03:43:04.451Z,4.07
2023-04-11T03:48:08.524Z,3.43
2023-04-11T03:53:11.926Z,3.00
2023-04-11T03:58:16.799Z,2.90
2023-04-11T04:03:20.209Z,4.20
2023-04-11T04:08:23.703Z,3.70
2023-04-11T04:13:28.761Z,3.30
2023-04-11T04:18:32.032Z,3.13
2023-04-11T04:23:36.216Z,3.43
2023-04-11T04:28:41.727Z,3.93
2023-04-11T04:33:44.973Z,3.87
2023-04-11T04:38:48.371Z,3.57
2023-04-11T04:43:54.925Z,3.23
2023-04-11T04:48:59.546Z,3.47
2023-04-11T04:54:05.013Z,3.70
2023-04-11T04:59:14.683Z,5.77
2023-04-11T05:04:17.983Z,3.17
2023-04-11T05:09:21.340Z,3.90
2023-04-11T05:14:25.955Z,3.90
2023-04-11T05:19:29.266Z,3.90
2023-04-11T05:24:32.522Z,3.60
2023-04-11T05:29:37.161Z,4.90
2023-04-11T05:34:52.865Z,3.63
2023-04-11T05:39:56.489Z,3.47
2023-04-11T05:45:01.291Z,4.80
2023-04-11T05:50:04.638Z,4.00
2023-04-11T05:55:08.638Z,3.83
2023-04-11T06:00:16.920Z,3.10
2023-04-11T06:05:21.331Z,3.57
2023-04-11T06:10:24.689Z,4.07
2023-04-11T06:15:29.448Z,4.63
2023-04-11T06:20:32.729Z,4.67
2023-04-11T06:25:35.973Z,3.47
2023-04-11T06:30:40.542Z,5.23
2023-04-11T06:35:43.828Z,4.10
2023-04-11T06:40:47.020Z,5.27
2023-04-11T06:45:52.134Z,4.07
2023-04-11T06:50:55.388Z,8.70
2023-04-11T06:55:59.862Z,6.17
2023-04-11T07:01:04.437Z,4.60
2023-04-11T07:06:08.597Z,4.93
2023-04-11T07:11:12.102Z,4.97
2023-04-11T07:16:16.843Z,5.60
2023-04-11T07:21:20.198Z,3.87
2023-04-11T07:26:23.773Z,3.90
2023-04-11T07:31:28.571Z,2.83
2023-04-11T07:36:31.977Z,4.93
2023-04-11T07:41:35.912Z,5.13
2023-04-11T07:46:40.562Z,9.37
2023-04-11T07:51:44.559Z,5.20
2023-04-11T07:56:47.856Z,3.90
2023-04-11T08:01:59.448Z,3.67
2023-04-11T08:07:02.697Z,5.77
2023-04-11T08:12:06.308Z,4.10
2023-04-11T08:17:27.118Z,11.80
2023-04-11T08:22:31.330Z,5.20
2023-04-11T08:27:34.563Z,4.50
2023-04-11T08:32:39.459Z,6.30
2023-04-11T08:37:44.509Z,6.10
2023-04-11T08:42:47.774Z,6.17
2023-04-11T08:47:52.782Z,5.10
2023-04-11T08:52:56.453Z,4.47
2023-04-11T08:58:02.914Z,4.10
2023-04-11T09:03:09.138Z,4.67
2023-04-11T09:08:14.054Z,4.77
2023-04-11T09:13:22.990Z,5.93
2023-04-11T09:18:35.101Z,4.33
2023-04-11T09:23:39.014Z,4.07
2023-04-11T09:28:43.627Z,5.43
2023-04-11T09:33:55.642Z,5.23
2023-04-11T09:38:59.487Z,10.77
2023-04-11T09:44:03.356Z,4.60
2023-04-11T09:49:12.174Z,4.53
2023-04-11T09:54:17.419Z,4.73
2023-04-11T09:59:22.454Z,4.10
2023-04-11T10:04:28.205Z,3.20
2023-04-11T10:09:32.525Z,3.73
2023-04-11T10:14:46.181Z,3.43
2023-04-11T10:19:51.880Z,2.40
2023-04-11T10:25:16.700Z,4.17
2023-04-11T10:30:20.059Z,2.70
2023-04-11T10:35:25.202Z,4.27
2023-04-11T10:40:28.508Z,4.97
2023-04-11T10:45:32.520Z,3.17
2023-04-11T10:50:47.348Z,3.37
2023-04-11T10:55:51.785Z,4.93
2023-04-11T11:01:36.918Z,2.17
2023-04-11T11:06:56.799Z,0.33
2023-04-11T11:12:10.702Z,0.30
2023-04-11T11:17:15.758Z,1.30
2023-04-11T11:22:25.865Z,1.30
2023-04-11T11:27:29.380Z,1.20
2023-04-11T11:32:33.062Z,1.40
2023-04-11T11:37:37.765Z,1.90
2023-04-11T11:42:41.433Z,1.30
2023-04-11T11:47:45.002Z,1.30
2023-04-11T11:52:49.619Z,0.80
2023-04-11T11:57:52.913Z,0.30
2023-04-11T12:02:57.748Z,0.60
2023-04-11T12:08:04.558Z,0.20
2023-04-11T12:13:19.208Z,0.20
2023-04-11T12:18:23.210Z,0.20
2023-04-11T12:23:27.852Z,1.30
2023-04-11T12:28:31.096Z,0.97
2023-04-11T12:33:34.447Z,0.20
2023-04-11T12:38:39.177Z,0.63
2023-04-11T12:43:42.436Z,0.47
2023-04-11T12:48:45.715Z,0.20
2023-04-11T12:53:52.827Z,0.50
2023-04-11T12:58:56.471Z,1.47
2023-04-11T13:04:00.190Z,0.87
2023-04-11T13:09:07.528Z,0.50
2023-04-11T13:14:11.087Z,0.50
2023-04-11T13:19:14.317Z,2.70
2023-04-11T13:24:18.951Z,0.30
2023-04-11T13:29:22.195Z,0.33
2023-04-11T13:34:25.520Z,0.90
2023-04-11T13:39:30.165Z,0.70
2023-04-11T13:44:33.420Z,2.10
2023-04-11T13:49:36.569Z,2.07
2023-04-11T13:54:41.377Z,0.83
2023-04-11T13:59:44.628Z,0.77
2023-04-11T14:04:47.877Z,0.77
2023-04-11T14:09:52.472Z,0.73
2023-04-11T14:14:55.685Z,0.67
2023-04-11T14:19:59.437Z,0.40
2023-04-11T14:25:05.608Z,0.30
2023-04-11T14:30:10.084Z,0.20
2023-04-11T14:35:13.356Z,1.80
2023-04-11T14:40:18.080Z,0.83
2023-04-11T14:45:21.435Z,1.03
2023-04-11T14:50:26.578Z,1.27
2023-04-11T14:55:31.772Z,1.97
2023-04-11T15:00:35.397Z,1.10
2023-04-11T15:05:38.597Z,2.23
2023-04-11T15:10:43.268Z,1.53
2023-04-11T15:15:46.567Z,1.37
2023-04-11T15:20:49.981Z,1.67
2023-04-11T15:25:59.489Z,0.93
2023-04-11T15:31:03.481Z,1.50
2023-04-11T15:36:07.352Z,1.67
2023-04-11T15:41:13.299Z,0.50
2023-04-11T15:46:17.088Z,1.43
2023-04-11T15:51:21.621Z,0.63
2023-04-11T15:56:26.198Z,1.73
2023-04-11T16:01:30.164Z,1.47
2023-04-11T16:06:33.407Z,1.23
2023-04-11T16:11:38.756Z,1.83
2023-04-11T16:16:42.003Z,1.63
2023-04-11T16:21:45.560Z,1.20
2023-04-11T16:26:50.165Z,2.23
2023-04-11T16:31:53.429Z,0.83
2023-04-11T16:36:57.643Z,1.40
2023-04-11T16:42:02.461Z,1.73
2023-04-11T16:47:05.808Z,1.37
2023-04-11T16:52:09.109Z,1.50
2023-04-11T16:57:13.865Z,1.77
2023-04-11T17:02:17.292Z,1.10
2023-04-11T17:07:20.753Z,2.07
2023-04-11T17:12:26.120Z,1.67
2023-04-11T17:17:29.462Z,2.20
2023-04-11T17:22:32.777Z,2.00
2023-04-11T17:27:37.434Z,2.57
2023-04-11T17:32:40.796Z,2.27
2023-04-11T17:37:44.113Z,2.30
2023-04-11T17:42:48.788Z,2.10
2023-04-11T17:47:52.167Z,2.10
2023-04-11T17:52:56.111Z,2.97
2023-04-11T17:58:00.875Z,1.53
2023-04-11T18:03:04.317Z,1.70
2023-04-11T18:08:07.996Z,1.20
2023-04-11T18:13:12.619Z,1.53
2023-04-11T18:18:16.373Z,2.23
2023-04-11T18:23:19.754Z,1.40
2023-04-11T18:28:24.546Z,2.77
2023-04-11T18:33:28.139Z,4.43
2023-04-11T18:38:32.890Z,1.60
2023-04-11T18:43:38.844Z,1.43
2023-04-11T18:48:43.259Z,3.10
2023-04-11T18:53:47.463Z,2.60
2023-04-11T18:58:55.506Z,2.40
2023-04-11T19:04:03.704Z,2.27
2023-04-11T19:09:11.849Z,2.07
2023-04-11T19:14:16.956Z,3.67
2023-04-11T19:19:21.045Z,2.10
2023-04-11T19:24:25.512Z,1.73
2023-04-11T19:29:31.105Z,2.67
2023-04-11T19:34:35.443Z,1.60
2023-04-11T19:39:40.235Z,1.87
2023-04-11T19:44:46.123Z,2.83
2023-04-11T19:49:53.129Z,1.50
2023-04-11T19:54:57.919Z,2.20
2023-04-11T20:00:13.617Z,6.10
2023-04-11T20:05:19.564Z,2.90
2023-04-11T20:10:25.547Z,4.60
2023-04-11T20:15:31.095Z,3.23
2023-04-11T20:20:37.475Z,2.10
2023-04-11T20:25:41.273Z,2.67
2023-04-11T20:30:45.953Z,1.77
2023-04-11T20:35:49.266Z,1.80
2023-04-11T20:40:52.521Z,2.00
2023-04-11T20:45:57.632Z,2.80
2023-04-11T20:51:01.975Z,2.33
2023-04-11T20:56:06.059Z,2.87
2023-04-11T21:01:10.707Z,2.80
2023-04-11T21:06:13.919Z,3.70
2023-04-11T21:11:17.175Z,2.53
2023-04-11T21:16:22.018Z,2.93
2023-04-11T21:21:25.818Z,2.33
2023-04-11T21:26:29.322Z,2.47
2023-04-11T21:31:33.981Z,4.10
2023-04-11T21:36:37.189Z,2.07
2023-04-11T21:41:40.749Z,3.67
2023-04-11T21:46:45.354Z,2.00
2023-04-11T21:51:48.588Z,2.93
2023-04-11T21:56:51.944Z,2.20
2023-04-11T22:01:56.643Z,2.97
2023-04-11T22:07:00.556Z,2.33
2023-04-11T22:12:04.113Z,1.87
2023-04-11T22:17:09.060Z,2.03
2023-04-11T22:22:13.273Z,2.23
2023-04-11T22:27:18.437Z,2.47
2023-04-11T22:32:30.988Z,2.10
2023-04-11T22:37:34.152Z,1.40
2023-04-11T22:42:37.360Z,2.87
2023-04-11T22:47:45.665Z,2.80
2023-04-11T22:52:50.172Z,2.27
2023-04-11T22:57:53.485Z,1.77
2023-04-11T23:02:59.896Z,1.37
2023-04-11T23:08:03.335Z,3.37
2023-04-11T23:13:07.208Z,2.23
2023-04-11T23:18:12.661Z,2.47
2023-04-11T23:23:15.948Z,2.17
2023-04-11T23:28:19.159Z,2.67
2023-04-11T23:33:25.719Z,2.60
2023-04-11T23:38:29.062Z,2.57
2023-04-11T23:43:32.584Z,2.00
2023-04-11T23:48:37.163Z,2.30
2023-04-11T23:53:40.352Z,1.20
2023-04-11T23:58:43.557Z,2.53
